createdAt,value
2022-09-01T00:01:30.489Z,7.90
2022-09-01T00:04:03.548Z,7.30
2022-09-01T00:06:32.874Z,7.28
2022-09-01T00:09:03.751Z,7.38
2022-09-01T00:11:32.025Z,7.63
2022-09-01T00:14:00.968Z,7.88
2022-09-01T00:16:28.964Z,7.43
2022-09-01T00:18:55.886Z,7.28
2022-09-01T00:21:26.287Z,8.13
2022-09-01T00:23:54.300Z,6.97
2022-09-01T00:26:21.391Z,7.45
2022-09-01T00:28:48.080Z,8.35
2022-09-01T00:31:15.136Z,7.35
2022-09-01T00:33:42.451Z,7.10
2022-09-01T00:36:09.735Z,7.35
2022-09-01T00:38:36.631Z,7.15
2022-09-01T00:41:03.810Z,7.38
2022-09-01T00:43:41.860Z,7.03
2022-09-01T00:46:13.027Z,7.00
2022-09-01T00:48:40.230Z,6.22
2022-09-01T00:51:11.299Z,6.80
2022-09-01T00:53:41.111Z,6.75
2022-09-01T00:56:08.836Z,7.45
2022-09-01T00:58:37.924Z,7.22
2022-09-01T01:01:07.043Z,7.00
2022-09-01T01:03:34.559Z,7.00
2022-09-01T01:06:05.011Z,7.43
2022-09-01T01:11:19.789Z,8.02
2022-09-01T01:13:48.802Z,7.55
2022-09-01T01:16:16.089Z,7.03
2022-09-01T01:18:43.351Z,7.28
2022-09-01T01:21:41.290Z,6.47
2022-09-01T01:24:27.436Z,7.07
2022-09-01T01:26:59.651Z,7.35
2022-09-01T01:29:40.257Z,7.63
2022-09-01T01:32:13.117Z,7.15
2022-09-01T01:34:43.561Z,8.85
2022-09-01T01:37:14.103Z,7.38
2022-09-01T01:39:43.816Z,7.10
2022-09-01T01:42:12.314Z,6.40
2022-09-01T01:44:39.880Z,7.15
2022-09-01T01:47:12.917Z,7.88
2022-09-01T01:49:43.877Z,7.50
2022-09-01T01:52:16.265Z,7.32
2022-09-01T01:54:46.246Z,7.03
2022-09-01T01:57:17.242Z,7.93
2022-09-01T01:59:45.204Z,6.80
2022-09-01T02:02:12.964Z,6.43
2022-09-01T02:04:40.419Z,7.13
2022-09-01T02:07:12.832Z,6.80
2022-09-01T02:09:44.037Z,7.03
2022-09-01T02:12:11.659Z,6.75
2022-09-01T02:14:42.265Z,7.05
2022-09-01T02:17:09.093Z,7.30
2022-09-01T02:19:41.773Z,7.30
2022-09-01T02:22:11.415Z,7.65
2022-09-01T02:24:46.424Z,8.55
2022-09-01T02:27:15.703Z,8.20
2022-09-01T02:29:43.682Z,7.28
2022-09-01T02:32:11.609Z,8.00
2022-09-01T02:34:39.970Z,7.63
2022-09-01T02:37:06.637Z,7.43
2022-09-01T02:39:33.592Z,7.22
2022-09-01T02:42:01.363Z,8.18
2022-09-01T02:44:32.131Z,7.20
2022-09-01T02:47:00.834Z,7.28
2022-09-01T02:49:31.420Z,8.95
2022-09-01T02:52:01.549Z,8.85
2022-09-01T02:56:58.004Z,7.85
2022-09-01T02:59:27.646Z,8.18
2022-09-01T03:01:57.986Z,8.98
2022-09-01T03:04:27.294Z,8.55
2022-09-01T03:06:54.832Z,8.48
2022-09-01T03:09:23.114Z,8.98
2022-09-01T03:11:52.369Z,8.60
2022-09-01T03:14:20.564Z,8.93
2022-09-01T03:16:48.202Z,8.20
2022-09-01T03:19:17.460Z,8.65
2022-09-01T03:21:45.438Z,8.02
2022-09-01T03:24:17.822Z,8.10
2022-09-01T03:26:46.993Z,8.85
2022-09-01T03:29:18.058Z,9.27
2022-09-01T03:31:44.950Z,7.88
2022-09-01T03:34:12.529Z,9.02
2022-09-01T03:36:50.480Z,8.55
2022-09-01T03:39:29.707Z,8.30
2022-09-01T03:41:58.887Z,9.48
2022-09-01T03:44:26.704Z,9.30
2022-09-01T03:46:53.393Z,9.98
2022-09-01T03:49:27.705Z,8.93
2022-09-01T03:51:57.361Z,8.40
2022-09-01T03:54:27.842Z,8.80
2022-09-01T03:56:57.613Z,9.25
2022-09-01T03:59:25.667Z,9.43
2022-09-01T04:01:52.500Z,9.68
2022-09-01T04:04:19.984Z,9.80
2022-09-01T04:06:46.655Z,9.60
2022-09-01T04:09:14.235Z,9.95
2022-09-01T04:11:46.342Z,9.10
2022-09-01T04:14:15.810Z,8.93
2022-09-01T04:17:02.909Z,10.82
2022-09-01T04:19:36.565Z,9.25
2022-09-01T04:22:03.637Z,8.20
2022-09-01T04:24:45.095Z,9.48
2022-09-01T04:27:14.121Z,8.95
2022-09-01T04:29:41.860Z,9.15
2022-09-01T04:32:13.142Z,8.65
2022-09-01T04:34:43.135Z,9.13
2022-09-01T04:37:18.720Z,8.55
2022-09-01T04:39:56.282Z,9.15
2022-09-01T04:42:29.469Z,9.45
2022-09-01T04:44:59.989Z,8.38
2022-09-01T04:47:35.348Z,8.80
2022-09-01T04:50:12.900Z,8.70
2022-09-01T04:52:42.393Z,8.98
2022-09-01T04:55:19.138Z,10.07
2022-09-01T04:57:47.721Z,10.30
2022-09-01T05:00:22.840Z,9.77
2022-09-01T05:02:52.294Z,8.90
2022-09-01T05:05:22.245Z,8.57
2022-09-01T05:07:54.925Z,8.63
2022-09-01T05:10:23.477Z,8.23
2022-09-01T05:13:17.631Z,8.20
2022-09-01T05:15:47.098Z,9.43
2022-09-01T05:18:23.323Z,9.23
2022-09-01T05:20:52.162Z,9.13
2022-09-01T05:23:19.763Z,9.50
2022-09-01T05:25:49.554Z,8.75
2022-09-01T05:28:19.133Z,8.88
2022-09-01T05:30:49.121Z,9.00
2022-09-01T05:33:21.232Z,9.13
2022-09-01T05:35:59.851Z,8.98
2022-09-01T05:38:30.800Z,8.32
2022-09-01T05:41:04.478Z,8.63
2022-09-01T05:43:32.487Z,9.25
2022-09-01T05:46:07.187Z,7.80
2022-09-01T05:48:39.844Z,8.23
2022-09-01T05:51:27.448Z,7.93
2022-09-01T05:53:59.315Z,7.18
2022-09-01T05:56:30.795Z,7.35
2022-09-01T06:01:50.516Z,6.53
2022-09-01T06:04:18.118Z,6.63
2022-09-01T06:07:05.914Z,6.40
2022-09-01T06:09:41.761Z,6.68
2022-09-01T06:12:18.151Z,5.47
2022-09-01T06:14:47.607Z,5.85
2022-09-01T06:17:16.988Z,4.72
2022-09-01T06:19:44.255Z,4.35
2022-09-01T06:22:11.733Z,5.13
2022-09-01T06:24:40.345Z,5.13
2022-09-01T06:29:41.613Z,5.07
2022-09-01T06:32:10.402Z,5.15
2022-09-01T06:34:44.511Z,4.97
2022-09-01T06:37:13.298Z,5.10
2022-09-01T06:39:43.974Z,4.78
2022-09-01T06:42:14.944Z,5.60
2022-09-01T06:44:48.428Z,4.47
2022-09-01T06:47:15.678Z,3.80
2022-09-01T06:49:42.755Z,3.75
2022-09-01T06:52:16.126Z,4.60
2022-09-01T06:54:44.086Z,4.88
2022-09-01T06:59:58.119Z,3.55
2022-09-01T07:02:27.179Z,4.03
2022-09-01T07:08:13.416Z,3.97
2022-09-01T07:16:51.699Z,4.18
2022-09-01T07:19:21.250Z,3.95
2022-09-01T07:22:35.875Z,3.45
2022-09-01T07:25:11.432Z,3.83
2022-09-01T07:27:56.504Z,3.55
2022-09-01T07:30:27.442Z,4.55
2022-09-01T07:32:55.865Z,4.35
2022-09-01T07:35:24.488Z,4.45
2022-09-01T07:43:52.903Z,4.05
2022-09-01T07:46:40.448Z,4.32
2022-09-01T07:49:36.649Z,3.97
2022-09-01T07:52:03.997Z,4.82
2022-09-01T07:54:31.533Z,4.50
2022-09-01T07:56:58.209Z,4.75
2022-09-01T07:59:27.895Z,4.18
2022-09-01T08:02:05.749Z,4.45
2022-09-01T08:04:34.084Z,4.78
2022-09-01T08:07:01.783Z,4.30
2022-09-01T08:09:37.511Z,4.85
2022-09-01T08:12:09.100Z,4.60
2022-09-01T08:14:45.676Z,3.83
2022-09-01T08:17:17.051Z,4.18
2022-09-01T08:19:46.948Z,4.32
2022-09-01T08:22:24.048Z,3.80
2022-09-01T08:25:01.986Z,3.95
2022-09-01T08:27:28.947Z,3.15
2022-09-01T08:29:55.811Z,3.80
2022-09-01T08:32:22.534Z,3.53
2022-09-01T08:34:49.796Z,3.60
2022-09-01T08:37:16.651Z,4.13
2022-09-01T08:39:43.409Z,3.53
2022-09-01T08:42:56.631Z,3.67
2022-09-01T08:45:55.265Z,3.63
2022-09-01T08:49:23.517Z,3.45
2022-09-01T08:51:46.088Z,3.17
2022-09-01T08:54:29.483Z,2.80
2022-09-01T08:57:01.983Z,2.92
2022-09-01T08:59:48.660Z,3.33
2022-09-01T09:03:12.716Z,2.63
2022-09-01T09:06:04.031Z,3.03
2022-09-01T09:08:46.090Z,2.50
2022-09-01T09:11:18.741Z,2.78
2022-09-01T09:14:11.302Z,2.50
2022-09-01T09:16:46.963Z,2.83
2022-09-01T09:19:24.508Z,2.63
2022-09-01T09:21:54.510Z,2.45
2022-09-01T09:24:50.168Z,2.85
2022-09-01T09:27:28.115Z,2.83
2022-09-01T09:30:04.232Z,2.75
2022-09-01T09:35:44.260Z,2.65
2022-09-01T09:38:27.688Z,2.88
2022-09-01T09:41:17.327Z,2.47
2022-09-01T09:44:00.163Z,3.00
2022-09-01T09:46:35.859Z,2.70
2022-09-01T09:49:35.132Z,2.80
2022-09-01T09:52:10.239Z,2.75
2022-09-01T09:54:40.185Z,2.47
2022-09-01T09:57:11.622Z,2.60
2022-09-01T09:59:59.189Z,2.53
2022-09-01T10:02:34.963Z,2.45
2022-09-01T10:05:22.809Z,2.20
2022-09-01T10:07:50.134Z,2.47
2022-09-01T10:10:42.957Z,2.58
2022-09-01T10:13:18.978Z,2.20
2022-09-01T10:15:55.063Z,2.22
2022-09-01T10:18:37.757Z,2.50
2022-09-01T10:21:24.104Z,2.08
2022-09-01T10:23:50.774Z,2.53
2022-09-01T10:26:38.836Z,2.17
2022-09-01T10:29:06.669Z,2.30
2022-09-01T10:31:34.063Z,2.53
2022-09-01T10:34:06.106Z,1.85
2022-09-01T10:36:35.571Z,2.03
2022-09-01T10:39:09.001Z,2.33
2022-09-01T10:42:00.050Z,2.20
2022-09-01T10:44:34.332Z,1.98
2022-09-01T10:47:30.168Z,2.45
2022-09-01T10:50:01.264Z,2.60
2022-09-01T10:52:40.410Z,2.22
2022-09-01T10:55:32.629Z,2.03
2022-09-01T11:01:49.597Z,2.28
2022-09-01T11:04:28.857Z,2.20
2022-09-01T11:07:13.903Z,2.28
2022-09-01T11:09:43.604Z,1.80
2022-09-01T11:12:37.672Z,2.60
2022-09-01T11:15:14.431Z,1.85
2022-09-01T11:17:50.765Z,1.88
2022-09-01T11:20:26.322Z,1.52
2022-09-01T11:22:59.199Z,1.95
2022-09-01T11:25:41.105Z,1.50
2022-09-01T11:28:15.598Z,1.52
2022-09-01T11:30:53.038Z,2.10
2022-09-01T11:33:58.531Z,2.05
2022-09-01T11:36:48.685Z,2.35
2022-09-01T11:39:15.291Z,2.13
2022-09-01T11:42:04.288Z,2.60
2022-09-01T11:44:47.338Z,2.90
2022-09-01T11:47:19.908Z,2.08
2022-09-01T11:49:59.783Z,1.35
2022-09-01T11:52:30.658Z,1.45
2022-09-01T11:54:58.875Z,1.65
2022-09-01T11:57:35.242Z,1.77
2022-09-01T12:00:11.557Z,1.67
2022-09-01T12:02:50.375Z,1.63
2022-09-01T12:05:40.769Z,1.90
2022-09-01T12:08:18.261Z,1.35
2022-09-01T12:10:50.674Z,1.60
2022-09-01T12:13:22.170Z,1.10
2022-09-01T12:16:17.975Z,1.65
2022-09-01T12:18:51.383Z,0.90
2022-09-01T12:21:23.066Z,1.23
2022-09-01T12:23:50.351Z,1.20
2022-09-01T12:26:23.066Z,1.33
2022-09-01T12:28:51.212Z,1.02
2022-09-01T12:31:22.337Z,0.90
2022-09-01T12:33:50.831Z,0.93
2022-09-01T12:36:21.526Z,1.02
2022-09-01T12:38:49.125Z,1.10
2022-09-01T12:41:24.793Z,0.90
2022-09-01T12:43:54.608Z,1.00
2022-09-01T12:46:44.880Z,1.05
2022-09-01T12:49:22.423Z,1.30
2022-09-01T12:51:49.171Z,0.90
2022-09-01T12:54:16.165Z,1.00
2022-09-01T12:56:50.383Z,0.90
2022-09-01T12:59:36.255Z,0.90
2022-09-01T13:02:27.536Z,1.20
2022-09-01T13:04:54.483Z,0.68
2022-09-01T13:07:21.158Z,1.02
2022-09-01T13:09:50.537Z,0.65
2022-09-01T13:12:21.096Z,1.00
2022-09-01T13:17:15.030Z,1.20
2022-09-01T13:19:42.212Z,0.82
2022-09-01T13:22:08.929Z,1.15
2022-09-01T13:24:35.604Z,0.80
2022-09-01T13:29:49.696Z,1.10
2022-09-01T13:32:18.942Z,0.73
2022-09-01T13:34:47.514Z,0.75
2022-09-01T13:37:14.479Z,0.68
2022-09-01T13:39:41.081Z,0.90
2022-09-01T13:42:08.016Z,0.90
2022-09-01T13:44:35.473Z,0.80
2022-09-01T13:52:35.941Z,0.70
2022-09-01T13:55:02.567Z,0.98
2022-09-01T13:57:31.027Z,1.00
2022-09-01T14:00:17.286Z,0.70
2022-09-01T14:02:50.156Z,0.80
2022-09-01T14:05:19.439Z,1.02
2022-09-01T14:07:46.539Z,0.90
2022-09-01T14:10:14.700Z,0.90
2022-09-01T14:12:42.336Z,0.63
2022-09-01T14:15:13.935Z,1.02
2022-09-01T14:17:44.063Z,1.02
2022-09-01T14:20:18.535Z,0.90
2022-09-01T14:22:46.434Z,0.80
2022-09-01T14:25:14.797Z,0.85
2022-09-01T14:27:44.620Z,0.80
2022-09-01T14:30:19.436Z,1.15
2022-09-01T14:32:47.774Z,0.98
2022-09-01T14:35:16.771Z,0.80
2022-09-01T14:37:45.666Z,1.10
2022-09-01T14:40:16.718Z,0.80
2022-09-01T14:42:49.706Z,0.98
2022-09-01T14:45:19.566Z,0.93
2022-09-01T14:47:48.967Z,0.70
2022-09-01T14:50:21.673Z,0.77
2022-09-01T14:52:54.716Z,0.90
2022-09-01T14:55:23.679Z,1.05
2022-09-01T14:57:51.534Z,1.00
2022-09-01T15:00:19.244Z,0.77
2022-09-01T15:02:46.602Z,0.60
2022-09-01T15:05:14.279Z,0.68
2022-09-01T15:07:42.722Z,0.68
2022-09-01T15:10:11.783Z,0.70
2022-09-01T15:12:42.896Z,0.80
2022-09-01T15:15:09.960Z,0.73
2022-09-01T15:17:37.034Z,0.70
2022-09-01T15:20:24.235Z,0.98
2022-09-01T15:22:51.713Z,0.80
2022-09-01T15:25:19.054Z,0.88
2022-09-01T15:27:47.047Z,0.70
2022-09-01T15:30:17.985Z,0.75
2022-09-01T15:32:46.326Z,0.70
2022-09-01T15:35:14.705Z,0.85
2022-09-01T15:37:41.918Z,0.77
2022-09-01T15:40:10.061Z,1.00
2022-09-01T15:42:38.185Z,0.70
2022-09-01T15:45:08.261Z,0.80
2022-09-01T15:47:35.644Z,0.80
2022-09-01T15:50:06.429Z,0.70
2022-09-01T15:52:34.771Z,0.95
2022-09-01T15:55:03.582Z,0.70
2022-09-01T15:57:30.199Z,0.80
2022-09-01T15:59:57.807Z,0.70
2022-09-01T16:02:27.507Z,0.70
2022-09-01T16:04:59.155Z,0.80
2022-09-01T16:07:26.600Z,1.00
2022-09-01T16:09:57.849Z,0.98
2022-09-01T16:12:26.659Z,0.88
2022-09-01T16:14:55.483Z,0.80
2022-09-01T16:18:00.410Z,0.88
2022-09-01T16:20:38.237Z,0.80
2022-09-01T16:23:18.102Z,0.70
2022-09-01T16:25:46.533Z,0.98
2022-09-01T16:28:28.617Z,0.88
2022-09-01T16:31:04.565Z,0.70
2022-09-01T16:33:33.454Z,0.75
2022-09-01T16:36:07.057Z,0.60
2022-09-01T16:38:39.997Z,0.75
2022-09-01T16:41:44.517Z,0.60
2022-09-01T16:44:35.878Z,0.50
2022-09-01T16:47:15.578Z,0.68
2022-09-01T16:49:54.288Z,0.75
2022-09-01T16:52:29.433Z,0.70
2022-09-01T16:55:19.927Z,0.70
2022-09-01T16:57:59.033Z,0.87
2022-09-01T17:00:37.265Z,1.10
2022-09-01T17:03:17.567Z,1.20
2022-09-01T17:05:55.537Z,0.70
2022-09-01T17:08:30.970Z,0.70
2022-09-01T17:11:05.153Z,1.08
2022-09-01T17:13:38.309Z,0.60
2022-09-01T17:16:12.672Z,0.88
2022-09-01T17:18:41.260Z,0.77
2022-09-01T17:21:13.785Z,0.55
2022-09-01T17:23:52.414Z,0.80
2022-09-01T17:26:24.962Z,0.65
2022-09-01T17:29:09.370Z,0.80
2022-09-01T17:31:58.059Z,0.65
2022-09-01T17:34:34.632Z,0.90
2022-09-01T17:37:09.275Z,0.65
2022-09-01T17:39:57.280Z,0.70
2022-09-01T17:42:33.662Z,0.50
2022-09-01T17:45:29.023Z,0.77
2022-09-01T17:48:12.365Z,0.60
2022-09-01T17:51:04.971Z,0.70
2022-09-01T17:53:43.843Z,0.80
2022-09-01T17:56:22.183Z,0.70
2022-09-01T17:59:01.379Z,0.60
2022-09-01T18:01:36.738Z,0.70
2022-09-01T18:04:52.481Z,0.60
2022-09-01T18:07:34.156Z,0.63
2022-09-01T18:10:04.332Z,0.80
2022-09-01T18:12:38.967Z,0.80
2022-09-01T18:15:11.216Z,0.70
2022-09-01T18:17:40.892Z,0.85
2022-09-01T18:20:24.230Z,0.57
2022-09-01T18:22:50.858Z,0.70
2022-09-01T18:25:22.242Z,1.00
2022-09-01T18:27:49.031Z,0.88
2022-09-01T18:30:26.253Z,1.08
2022-09-01T18:33:33.094Z,0.75
2022-09-01T18:36:21.548Z,1.17
2022-09-01T18:39:01.213Z,0.85
2022-09-01T18:41:54.926Z,0.80
2022-09-01T18:44:29.065Z,0.82
2022-09-01T18:47:12.046Z,1.00
2022-09-01T18:49:44.387Z,0.63
2022-09-01T18:52:23.194Z,0.88
2022-09-01T18:55:25.682Z,0.60
2022-09-01T18:57:56.210Z,0.98
2022-09-01T19:00:59.299Z,0.97
2022-09-01T19:03:32.444Z,0.80
2022-09-01T19:06:10.003Z,1.00
2022-09-01T19:08:48.139Z,1.02
2022-09-01T19:11:19.396Z,0.90
2022-09-01T19:14:04.497Z,1.08
2022-09-01T19:17:03.829Z,0.60
2022-09-01T19:19:33.636Z,1.10
2022-09-01T19:22:00.330Z,1.30
2022-09-01T19:24:33.387Z,1.10
2022-09-01T19:27:30.553Z,1.20
2022-09-01T19:30:06.239Z,0.70
2022-09-01T19:32:35.208Z,0.80
2022-09-01T19:35:14.722Z,1.00
2022-09-01T19:37:42.674Z,0.90
2022-09-01T19:40:10.435Z,0.93
2022-09-01T19:43:00.061Z,1.38
2022-09-01T19:46:08.602Z,1.25
2022-09-01T19:48:44.413Z,1.08
2022-09-01T19:51:24.259Z,0.85
2022-09-01T19:54:03.078Z,0.90
2022-09-01T19:56:57.557Z,1.00
2022-09-01T19:59:46.955Z,1.13
2022-09-01T20:02:34.875Z,1.13
2022-09-01T20:05:07.938Z,1.30
2022-09-01T20:07:54.530Z,1.20
2022-09-01T20:10:55.294Z,1.48
2022-09-01T20:13:47.892Z,0.90
2022-09-01T20:16:27.325Z,0.93
2022-09-01T20:18:53.877Z,1.05
2022-09-01T20:21:21.591Z,1.13
2022-09-01T20:23:51.363Z,1.13
2022-09-01T20:26:47.345Z,1.17
2022-09-01T20:29:35.989Z,1.10
2022-09-01T20:32:04.065Z,1.20
2022-09-01T20:34:54.976Z,1.20
2022-09-01T20:37:30.334Z,1.33
2022-09-01T20:40:13.172Z,0.95
2022-09-01T20:43:08.445Z,1.40
2022-09-01T20:45:35.900Z,1.55
2022-09-01T20:48:14.370Z,0.90
2022-09-01T20:50:50.227Z,0.90
2022-09-01T20:53:38.646Z,1.08
2022-09-01T20:56:33.333Z,0.90
2022-09-01T20:59:08.717Z,0.90
2022-09-01T21:01:52.362Z,0.98
2022-09-01T21:04:24.894Z,1.13
2022-09-01T21:07:09.889Z,1.00
2022-09-01T21:10:01.448Z,0.90
2022-09-01T21:12:37.119Z,0.80
2022-09-01T21:15:31.892Z,0.85
2022-09-01T21:18:16.986Z,0.98
2022-09-01T21:21:21.950Z,1.20
2022-09-01T21:23:48.668Z,1.00
2022-09-01T21:26:15.355Z,0.80
2022-09-01T21:28:45.073Z,0.80
2022-09-01T21:31:14.803Z,1.10
2022-09-01T21:33:41.515Z,1.10
2022-09-01T21:36:08.565Z,1.10
2022-09-01T21:38:35.581Z,0.95
2022-09-01T21:41:02.522Z,1.00
2022-09-01T21:43:36.344Z,1.00
2022-09-01T21:46:04.028Z,0.80
2022-09-01T21:48:31.060Z,1.15
2022-09-01T21:50:57.697Z,0.88
2022-09-01T21:53:24.308Z,0.68
2022-09-01T21:55:50.940Z,0.90
2022-09-01T21:58:17.657Z,1.25
2022-09-01T22:00:44.609Z,1.10
2022-09-01T22:03:12.359Z,1.10
2022-09-01T22:05:41.790Z,1.17
2022-09-01T22:08:13.645Z,1.00
2022-09-01T22:10:46.331Z,1.20
2022-09-01T22:13:13.589Z,0.90
2022-09-01T22:15:43.366Z,1.10
2022-09-01T22:18:10.381Z,1.00
2022-09-01T22:20:37.418Z,1.00
2022-09-01T22:23:04.157Z,0.95
2022-09-01T22:25:32.672Z,1.10
2022-09-01T22:28:05.114Z,1.02
2022-09-01T22:30:32.371Z,1.00
2022-09-01T22:33:01.049Z,1.55
2022-09-01T22:35:28.048Z,1.00
2022-09-01T22:37:55.249Z,0.90
2022-09-01T22:40:21.995Z,0.80
2022-09-01T22:42:48.843Z,1.27
2022-09-01T22:45:15.724Z,1.00
2022-09-01T22:47:42.415Z,1.30
2022-09-01T22:50:10.027Z,1.08
2022-09-01T22:52:36.770Z,1.20
2022-09-01T22:55:04.979Z,1.23
2022-09-01T22:57:31.991Z,0.98
2022-09-01T22:59:58.747Z,0.90
2022-09-01T23:02:25.448Z,1.40
2022-09-01T23:04:52.794Z,1.05
2022-09-01T23:07:19.453Z,1.20
2022-09-01T23:09:46.121Z,1.05
2022-09-01T23:12:14.691Z,1.23
2022-09-01T23:14:41.563Z,1.13
2022-09-01T23:17:08.216Z,1.00
2022-09-01T23:19:34.845Z,0.85
2022-09-01T23:22:02.969Z,1.15
2022-09-01T23:24:29.670Z,1.15
2022-09-01T23:26:56.865Z,1.00
2022-09-01T23:29:25.242Z,1.35
2022-09-01T23:31:52.179Z,1.80
2022-09-01T23:34:18.854Z,1.20
2022-09-01T23:36:45.525Z,1.23
2022-09-01T23:39:12.261Z,1.10
2022-09-01T23:41:38.958Z,1.42
2022-09-01T23:44:09.767Z,1.42
2022-09-01T23:46:45.631Z,1.08
2022-09-01T23:49:14.487Z,1.15
2022-09-01T23:51:41.407Z,1.40
2022-09-01T23:54:08.356Z,1.48
2022-09-01T23:56:35.256Z,1.10
2022-09-01T23:59:02.001Z,1.20
